Terminal Aerodrome Forecast
Issued by NWS

Home | Current Version | Previous Version | Text Only | Print | Product List | Glossary On
Versions: 1 2 3 4 5 6 7 8 9 10 11 12 13
372
FTUS45 KABQ 201720
TAFSAF
TAF
KSAF 201720Z 2018/2118 32006KT P6SM BKN090 OVC150
     FM202100 20010KT P6SM VCSH OVC090
     FM202200 17012G22KT P6SM VCTS BKN070CB
      TEMPO 2022/2024 VRB20G30KT -TSRA BKN050CB
     FM210100 14011KT P6SM -SHRA SCT030 OVC050
     FM210500 13007KT P6SM VCSH OVC040=

USA.gov is the U.S. government's official web portal to all federal, state and local government web resources and services.